KBMG/BMG METAR and TAF weather

Enter ICAO airport designator
Station Type Date Time Source
KBMG METAR 2020/03/29 11:53 UTC NOAA

KBMG 291153Z 25016G28KT 10SM FEW055 15/04 A2970 RMK AO2 PK WND 22032/1123 SLP050 70071 T01500044 10194 20150 52025


Station Type Date Time Source
KBMG Decoded METAR 2020/03/29 11:53 UTC NOAA

MONROE COUNTY AIRPORT, IN, United States (KBMG) 39-09N 086-37W 257M
Mar 29, 2020 - 07:53 AM EDT / 2020.03.29 1153 UTC
Wind: from the WSW (250 degrees) at 18 MPH (16 KT) gusting to 32 MPH (28 KT):0
Visibility: 10 mile(s):0
Sky conditions: mostly clear
Temperature: 59.0 F (15.0 C)
Dew Point: 39.9 F (4.4 C)
Relative Humidity: 49%
Pressure (altimeter): 29.7 in. Hg (1005 hPa)
Pressure tendency: 0.07 inches (2.5 hPa) higher than three hours ago
ob: KBMG 291153Z 25016G28KT 10SM FEW055 15/04 A2970 RMK AO2 PK WND 22032/1123 SLP050 70071 T01500044 10194 20150 52025
cycle: 12

Station Type Date Time Source
KBMG TAF 2020/03/29 12:22 UTC NOAA

TAF KBMG 291120Z 2912/3012 24014KT P6SM SCT200
FM291400 24018G33KT P6SM BKN035
FM291700 24019G35KT P6SM SCT060
FM300100 25013G21KT P6SM SKC WS020/26040KT
AMD LTD TO CLD VIS AND WIND TIL 291300

Example: see airport list